createdAt,value
2019-04-14T00:02:09.563Z,4.30
2019-04-14T00:04:13.927Z,4.40
2019-04-14T00:06:15.872Z,4.40
2019-04-14T00:08:17.910Z,4.40
2019-04-14T00:10:22.554Z,4.40
2019-04-14T00:12:25.132Z,4.30
2019-04-14T00:14:27.302Z,4.30
2019-04-14T00:16:29.170Z,4.30
2019-04-14T00:18:31.579Z,4.30
2019-04-14T00:20:36.562Z,4.30
2019-04-14T00:22:41.067Z,4.30
2019-04-14T00:24:42.779Z,4.30
2019-04-14T00:26:46.709Z,4.30
2019-04-14T00:28:49.061Z,4.20
2019-04-14T00:30:51.250Z,4.20
2019-04-14T00:32:57.477Z,4.30
2019-04-14T00:35:08.788Z,4.30
2019-04-14T00:37:27.525Z,4.30
2019-04-14T00:39:31.554Z,4.30
2019-04-14T00:41:47.621Z,4.30
2019-04-14T00:43:46.575Z,4.30
2019-04-14T00:45:53.527Z,4.40
2019-04-14T00:48:06.396Z,4.40
2019-04-14T00:50:05.840Z,4.30
2019-04-14T00:52:07.943Z,4.30
2019-04-14T00:54:09.375Z,4.30
2019-04-14T00:56:10.784Z,4.30
2019-04-14T00:58:12.779Z,4.30
2019-04-14T01:00:17.247Z,4.30
2019-04-14T01:02:18.819Z,4.30
2019-04-14T01:04:20.864Z,4.20
2019-04-14T01:06:22.947Z,4.20
2019-04-14T01:08:24.924Z,4.20
2019-04-14T01:10:26.347Z,4.30
2019-04-14T01:12:27.844Z,4.30
2019-04-14T01:14:29.876Z,4.30
2019-04-14T01:16:31.921Z,4.20
2019-04-14T01:18:34.079Z,4.20
2019-04-14T01:20:36.382Z,4.20
2019-04-14T01:22:38.108Z,4.20
2019-04-14T01:24:40.389Z,4.30
2019-04-14T01:26:42.092Z,4.20
2019-04-14T01:28:44.068Z,4.30
2019-04-14T01:30:45.868Z,4.20
2019-04-14T01:32:47.957Z,4.20
2019-04-14T01:34:51.202Z,4.20
2019-04-14T01:36:53.938Z,4.20
2019-04-14T01:38:55.771Z,4.20
2019-04-14T01:40:57.734Z,4.30
2019-04-14T01:42:59.510Z,4.20
2019-04-14T01:45:01.908Z,4.20
2019-04-14T01:47:03.408Z,4.20
2019-04-14T01:49:05.116Z,4.20
2019-04-14T01:51:11.306Z,4.20
2019-04-14T01:53:14.725Z,4.20
2019-04-14T01:55:35.853Z,4.20
2019-04-14T01:57:56.756Z,4.20
2019-04-14T02:00:01.041Z,4.20
2019-04-14T02:02:03.259Z,4.20
2019-04-14T02:04:04.983Z,4.20
2019-04-14T02:06:07.128Z,4.20
2019-04-14T02:08:09.057Z,4.20
2019-04-14T02:10:10.752Z,4.20
2019-04-14T02:12:12.744Z,4.20
2019-04-14T02:14:14.825Z,4.10
2019-04-14T02:16:25.953Z,4.10
2019-04-14T02:18:20.703Z,4.10
2019-04-14T02:20:22.953Z,4.20
2019-04-14T02:22:24.564Z,4.20
2019-04-14T02:24:26.372Z,4.20
2019-04-14T02:26:28.691Z,4.10
2019-04-14T02:28:31.027Z,4.10
2019-04-14T02:30:38.911Z,4.20
2019-04-14T02:33:05.341Z,4.20
2019-04-14T02:35:15.057Z,4.10
2019-04-14T02:37:17.617Z,4.10
2019-04-14T02:39:14.874Z,4.10
2019-04-14T02:41:18.319Z,4.10
2019-04-14T02:43:25.782Z,4.10
2019-04-14T02:45:32.239Z,4.10
2019-04-14T02:47:44.830Z,4.10
2019-04-14T02:49:34.811Z,4.00
2019-04-14T02:55:42.849Z,4.10
2019-04-14T02:57:38.289Z,4.00
2019-04-14T02:59:51.510Z,4.00
2019-04-14T03:01:59.533Z,4.00
2019-04-14T03:03:48.836Z,4.10
2019-04-14T03:05:58.005Z,4.10
2019-04-14T03:08:04.009Z,4.10
2019-04-14T03:10:20.937Z,4.00
2019-04-14T03:12:09.514Z,4.00
2019-04-14T03:14:07.962Z,4.00
2019-04-14T03:16:17.410Z,4.00
2019-04-14T03:22:55.888Z,3.90
2019-04-14T03:24:55.432Z,3.90
2019-04-14T03:27:13.561Z,3.90
2019-04-14T03:29:29.444Z,3.90
2019-04-14T03:39:40.559Z,3.80
2019-04-14T03:43:41.573Z,3.70
2019-04-14T03:45:50.855Z,3.70
2019-04-14T03:48:00.250Z,3.70
2019-04-14T03:50:02.585Z,3.70
2019-04-14T03:52:15.301Z,3.70
2019-04-14T03:53:58.442Z,3.70
2019-04-14T03:55:58.749Z,3.70
2019-04-14T03:57:56.257Z,3.70
2019-04-14T03:59:58.485Z,3.70
2019-04-14T04:02:00.876Z,3.70
2019-04-14T04:04:03.267Z,3.70
2019-04-14T04:06:05.312Z,3.70
2019-04-14T04:08:07.160Z,3.70
2019-04-14T04:10:11.432Z,3.70
2019-04-14T04:12:13.910Z,3.60
2019-04-14T04:14:15.977Z,3.60
2019-04-14T04:16:20.209Z,3.60
2019-04-14T04:18:24.104Z,3.70
2019-04-14T04:20:43.782Z,3.60
2019-04-14T04:22:47.634Z,3.70
2019-04-14T04:24:56.807Z,3.70
2019-04-14T04:27:00.327Z,3.70
2019-04-14T04:29:09.584Z,3.60
2019-04-14T04:31:24.584Z,3.60
2019-04-14T04:33:45.840Z,3.70
2019-04-14T04:36:01.167Z,3.70
2019-04-14T04:38:05.181Z,3.60
2019-04-14T04:40:09.400Z,3.50
2019-04-14T04:42:11.241Z,3.50
2019-04-14T04:44:13.642Z,3.50
2019-04-14T04:46:15.615Z,3.50
2019-04-14T04:48:17.398Z,3.40
2019-04-14T04:50:19.833Z,3.40
2019-04-14T04:52:21.317Z,3.40
2019-04-14T04:54:23.541Z,3.50
2019-04-14T04:56:25.443Z,3.50
2019-04-14T04:58:26.936Z,3.40
2019-04-14T05:00:28.801Z,3.40
2019-04-14T05:02:30.972Z,3.40
2019-04-14T05:04:32.971Z,3.40
2019-04-14T05:06:57.043Z,3.30
2019-04-14T05:09:01.298Z,3.30
2019-04-14T05:11:07.633Z,3.30
2019-04-14T05:13:09.907Z,3.20
2019-04-14T05:15:16.243Z,3.20
2019-04-14T05:17:19.607Z,3.20
2019-04-14T05:19:27.805Z,3.20
2019-04-14T05:21:25.556Z,3.10
2019-04-14T05:23:27.798Z,3.10
2019-04-14T05:25:29.711Z,3.10
2019-04-14T05:27:31.962Z,3.20
2019-04-14T05:29:34.041Z,3.20
2019-04-14T05:31:36.069Z,3.30
2019-04-14T05:33:38.299Z,3.30
2019-04-14T05:35:40.102Z,3.30
2019-04-14T05:37:42.144Z,3.30
2019-04-14T05:39:44.039Z,3.30
2019-04-14T05:41:57.128Z,3.30
2019-04-14T05:43:54.906Z,3.30
2019-04-14T05:45:52.436Z,3.30
2019-04-14T05:47:54.373Z,3.30
2019-04-14T05:49:57.496Z,3.30
2019-04-14T05:51:59.264Z,3.20
2019-04-14T05:54:01.154Z,3.30
2019-04-14T05:56:03.570Z,3.30
2019-04-14T05:58:05.718Z,3.30
2019-04-14T06:00:10.323Z,3.20
2019-04-14T06:02:11.937Z,3.20
2019-04-14T06:04:13.628Z,3.20
2019-04-14T06:06:15.053Z,3.20
2019-04-14T06:08:16.508Z,3.20
2019-04-14T06:10:17.890Z,3.30
2019-04-14T06:12:19.290Z,3.30
2019-04-14T06:14:20.713Z,3.20
2019-04-14T06:16:22.092Z,3.30
2019-04-14T06:18:23.476Z,3.30
2019-04-14T06:20:25.118Z,3.30
2019-04-14T06:22:26.511Z,3.30
2019-04-14T06:24:27.960Z,3.30
2019-04-14T06:26:29.404Z,3.30
2019-04-14T06:28:30.802Z,3.30
2019-04-14T06:30:34.070Z,3.30
2019-04-14T06:32:40.026Z,3.30
2019-04-14T06:34:49.281Z,3.30
2019-04-14T06:36:58.627Z,3.20
2019-04-14T06:39:04.919Z,3.10
2019-04-14T06:41:08.214Z,3.10
2019-04-14T06:43:11.710Z,3.10
2019-04-14T06:45:13.025Z,3.20
2019-04-14T06:47:14.419Z,3.30
2019-04-14T06:49:15.836Z,3.20
2019-04-14T06:51:17.207Z,3.20
2019-04-14T06:53:18.624Z,3.10
2019-04-14T06:55:20.016Z,3.20
2019-04-14T06:57:21.393Z,3.20
2019-04-14T06:59:22.868Z,3.20
2019-04-14T07:01:24.287Z,3.30
2019-04-14T07:03:25.713Z,3.30
2019-04-14T07:05:27.094Z,3.20
2019-04-14T07:07:28.590Z,3.30
2019-04-14T07:09:30.002Z,3.30
2019-04-14T07:11:31.397Z,3.30
2019-04-14T07:13:32.867Z,3.30
2019-04-14T07:15:34.301Z,3.30
2019-04-14T07:17:35.722Z,3.30
2019-04-14T07:19:37.122Z,3.40
2019-04-14T07:21:38.489Z,3.40
2019-04-14T07:23:39.900Z,3.40
2019-04-14T07:25:41.321Z,3.40
2019-04-14T07:27:42.699Z,3.40
2019-04-14T07:29:51.810Z,3.40
2019-04-14T07:31:55.122Z,3.50
2019-04-14T07:34:04.372Z,3.50
2019-04-14T07:36:07.676Z,3.40
2019-04-14T07:38:10.970Z,3.30
2019-04-14T07:40:19.925Z,3.20
2019-04-14T07:42:23.214Z,3.20
2019-04-14T07:44:29.435Z,3.20
2019-04-14T07:46:44.794Z,3.20
2019-04-14T07:48:50.700Z,3.20
2019-04-14T07:50:56.940Z,3.30
2019-04-14T07:53:16.556Z,3.30
2019-04-14T07:55:22.493Z,3.30
2019-04-14T07:57:40.733Z,3.40
2019-04-14T07:59:44.077Z,3.40
2019-04-14T08:01:47.357Z,3.50
2019-04-14T08:03:59.403Z,3.50
2019-04-14T08:06:00.822Z,3.50
2019-04-14T08:08:02.534Z,3.40
2019-04-14T08:10:06.433Z,3.40
2019-04-14T08:12:07.854Z,3.40
2019-04-14T08:14:09.281Z,3.40
2019-04-14T08:16:10.996Z,3.40
2019-04-14T08:18:12.408Z,3.40
2019-04-14T08:20:26.527Z,3.40
2019-04-14T08:22:17.316Z,3.40
2019-04-14T08:24:18.774Z,3.50
2019-04-14T08:26:20.225Z,3.50
2019-04-14T08:28:21.626Z,3.50
2019-04-14T08:30:23.030Z,3.50
2019-04-14T08:32:24.636Z,3.50
2019-04-14T08:34:26.018Z,3.50
2019-04-14T08:36:27.615Z,3.60
2019-04-14T08:38:29.006Z,3.50
2019-04-14T08:40:30.384Z,3.60
2019-04-14T08:42:36.603Z,3.60
2019-04-14T08:44:39.942Z,3.60
2019-04-14T08:47:01.268Z,3.60
2019-04-14T08:49:04.785Z,3.60
2019-04-14T08:51:08.072Z,3.70
2019-04-14T08:53:20.298Z,3.70
2019-04-14T08:55:41.455Z,3.80
2019-04-14T08:57:53.628Z,3.80
2019-04-14T09:00:13.485Z,3.80
2019-04-14T09:02:25.411Z,3.80
2019-04-14T09:04:34.506Z,3.80
2019-04-14T09:06:37.791Z,3.80
2019-04-14T09:08:41.071Z,3.90
2019-04-14T09:11:00.700Z,3.90
2019-04-14T09:13:02.081Z,3.90
2019-04-14T09:15:05.078Z,4.00
2019-04-14T09:17:06.502Z,4.00
2019-04-14T09:19:08.183Z,4.00
2019-04-14T09:21:09.674Z,4.10
2019-04-14T09:23:11.185Z,4.20
2019-04-14T09:25:12.570Z,4.30
2019-04-14T09:27:13.997Z,4.30
2019-04-14T09:29:15.386Z,4.20
2019-04-14T09:31:16.776Z,4.30
2019-04-14T09:33:18.209Z,4.20
2019-04-14T09:35:19.595Z,4.20
2019-04-14T09:37:20.990Z,4.30
2019-04-14T09:39:22.415Z,4.30
2019-04-14T09:41:23.839Z,4.40
2019-04-14T09:43:25.222Z,4.40
2019-04-14T09:45:26.631Z,4.40
2019-04-14T09:47:28.197Z,4.40
2019-04-14T09:49:29.610Z,4.40
2019-04-14T09:51:31.005Z,4.40
2019-04-14T09:53:32.397Z,4.50
2019-04-14T09:55:33.917Z,4.50
2019-04-14T09:57:35.304Z,4.50
2019-04-14T09:59:36.695Z,4.50
2019-04-14T10:01:38.100Z,4.60
2019-04-14T10:03:39.486Z,4.70
2019-04-14T10:05:40.953Z,4.70
2019-04-14T10:07:42.373Z,4.80
2019-04-14T10:09:43.885Z,4.80
2019-04-14T10:11:48.782Z,4.90
2019-04-14T10:13:48.740Z,5.00
2019-04-14T10:15:50.186Z,5.10
2019-04-14T10:17:51.585Z,5.10
2019-04-14T10:19:52.974Z,5.20
2019-04-14T10:21:54.469Z,5.20
2019-04-14T10:23:55.866Z,5.30
2019-04-14T10:25:57.308Z,5.40
2019-04-14T10:27:58.724Z,5.40
2019-04-14T10:30:00.115Z,5.40
2019-04-14T10:32:01.535Z,5.40
2019-04-14T10:34:03.043Z,5.50
2019-04-14T10:36:04.424Z,5.40
2019-04-14T10:38:05.807Z,5.50
2019-04-14T10:40:07.852Z,5.60
2019-04-14T10:42:09.217Z,5.70
2019-04-14T10:44:10.703Z,5.70
2019-04-14T10:46:12.127Z,5.70
2019-04-14T10:48:13.499Z,5.70
2019-04-14T10:50:14.890Z,5.70
2019-04-14T10:52:16.280Z,5.70
2019-04-14T10:54:17.694Z,5.70
2019-04-14T10:56:19.069Z,5.70
2019-04-14T10:58:20.476Z,5.70
2019-04-14T11:00:21.887Z,5.80
2019-04-14T11:02:23.326Z,5.70
2019-04-14T11:04:24.779Z,5.70
2019-04-14T11:06:28.105Z,5.70
2019-04-14T11:08:29.487Z,5.70
2019-04-14T11:10:30.865Z,5.80
2019-04-14T11:12:32.285Z,5.80
2019-04-14T11:14:33.683Z,5.90
2019-04-14T11:16:35.048Z,5.90
2019-04-14T11:18:36.474Z,5.80
2019-04-14T11:20:37.849Z,5.80
2019-04-14T11:22:39.246Z,5.90
2019-04-14T11:24:40.661Z,5.80
2019-04-14T11:26:42.038Z,5.90
2019-04-14T11:28:43.468Z,6.00
2019-04-14T11:30:45.155Z,6.00
2019-04-14T11:32:51.125Z,6.00
2019-04-14T11:35:03.318Z,6.00
2019-04-14T11:37:19.144Z,6.00
2019-04-14T11:39:21.469Z,6.00
2019-04-14T11:41:24.056Z,6.00
2019-04-14T11:43:25.533Z,6.00
2019-04-14T11:45:27.144Z,6.10
2019-04-14T11:47:28.634Z,6.10
2019-04-14T11:49:30.047Z,6.20
2019-04-14T11:51:31.451Z,6.30
2019-04-14T11:53:33.470Z,6.40
2019-04-14T11:55:34.968Z,6.40
2019-04-14T11:57:36.337Z,6.40
2019-04-14T11:59:48.372Z,6.50
2019-04-14T12:01:54.453Z,6.60
2019-04-14T12:04:15.610Z,6.60
2019-04-14T12:06:35.275Z,6.70
2019-04-14T12:08:47.351Z,6.80
2019-04-14T12:10:48.784Z,6.90
2019-04-14T12:12:50.168Z,7.00
2019-04-14T12:14:51.555Z,7.00
2019-04-14T12:16:52.983Z,7.10
2019-04-14T12:18:54.367Z,7.20
2019-04-14T12:20:55.744Z,7.30
2019-04-14T12:22:57.161Z,7.30
2019-04-14T12:24:58.669Z,7.30
2019-04-14T12:27:00.038Z,7.40
2019-04-14T12:29:03.047Z,7.50
2019-04-14T12:31:06.502Z,7.60
2019-04-14T12:33:08.023Z,7.90
2019-04-14T12:35:10.599Z,8.20
2019-04-14T12:37:12.010Z,8.40
2019-04-14T12:39:21.025Z,8.40
2019-04-14T12:41:24.712Z,8.60
2019-04-14T12:43:33.973Z,8.80
2019-04-14T12:45:39.993Z,8.60
2019-04-14T12:47:43.266Z,8.50
2019-04-14T12:49:52.296Z,8.50
2019-04-14T12:51:55.642Z,8.60
2019-04-14T12:53:57.064Z,8.70
2019-04-14T12:55:58.437Z,8.70
2019-04-14T12:58:01.763Z,8.80
2019-04-14T13:00:06.477Z,9.00
2019-04-14T13:02:11.266Z,9.40
2019-04-14T13:04:12.874Z,9.70
2019-04-14T13:06:14.348Z,9.90
2019-04-14T13:08:15.793Z,10.00
2019-04-14T13:10:17.198Z,9.80
2019-04-14T13:12:18.566Z,9.70
2019-04-14T13:14:20.055Z,9.60
2019-04-14T13:16:21.481Z,9.40
2019-04-14T13:18:22.868Z,9.30
2019-04-14T13:20:24.392Z,9.20
2019-04-14T13:22:33.807Z,9.20
2019-04-14T13:24:29.100Z,9.10
2019-04-14T13:26:30.560Z,9.10
2019-04-14T13:28:31.954Z,9.20
2019-04-14T13:30:35.248Z,9.30
2019-04-14T13:32:36.650Z,9.40
2019-04-14T13:34:38.030Z,9.50
2019-04-14T13:36:39.613Z,9.40
2019-04-14T13:38:41.188Z,9.50
2019-04-14T13:40:42.568Z,9.50
2019-04-14T13:42:43.953Z,9.50
2019-04-14T13:44:45.399Z,9.50
2019-04-14T13:46:46.869Z,9.40
2019-04-14T13:48:48.257Z,9.50
2019-04-14T13:50:49.677Z,9.50
2019-04-14T13:52:51.051Z,9.70
2019-04-14T13:54:52.455Z,9.80
2019-04-14T13:56:53.861Z,9.80
2019-04-14T13:58:55.241Z,9.90
2019-04-14T14:00:56.636Z,9.90
2019-04-14T14:02:58.047Z,9.80
2019-04-14T14:04:59.417Z,9.90
2019-04-14T14:07:00.831Z,10.10
2019-04-14T14:09:06.347Z,10.30
2019-04-14T14:11:21.395Z,10.40
2019-04-14T14:13:24.721Z,10.40
2019-04-14T14:15:44.648Z,10.50
2019-04-14T14:17:47.920Z,10.50
2019-04-14T14:20:07.637Z,10.40
2019-04-14T14:22:13.551Z,10.50
2019-04-14T14:24:19.613Z,10.50
2019-04-14T14:26:22.941Z,10.60
2019-04-14T14:28:24.553Z,10.40
2019-04-14T14:30:25.980Z,10.40
2019-04-14T14:32:32.163Z,10.40
2019-04-14T14:34:33.577Z,10.40
2019-04-14T14:36:34.994Z,10.40
2019-04-14T14:38:36.407Z,10.50
2019-04-14T14:40:37.790Z,10.40
2019-04-14T14:42:39.203Z,10.40
2019-04-14T14:44:42.492Z,10.40
2019-04-14T14:46:51.724Z,10.50
2019-04-14T14:48:57.679Z,10.50
2019-04-14T14:51:15.740Z,10.50
2019-04-14T14:53:17.143Z,10.60
2019-04-14T14:55:18.569Z,10.60
2019-04-14T14:57:19.940Z,10.60
2019-04-14T14:59:21.312Z,10.40
2019-04-14T15:01:22.774Z,10.40
2019-04-14T15:03:24.350Z,10.30
2019-04-14T15:05:25.785Z,10.30
2019-04-14T15:07:27.218Z,10.20
2019-04-14T15:09:28.617Z,10.10
2019-04-14T15:11:30.026Z,10.10
2019-04-14T15:13:31.509Z,10.30
2019-04-14T15:15:32.934Z,10.40
2019-04-14T15:17:34.310Z,10.40
2019-04-14T15:19:35.686Z,10.30
2019-04-14T15:21:37.117Z,10.40
2019-04-14T15:23:38.510Z,10.60
2019-04-14T15:25:39.888Z,10.90
2019-04-14T15:27:41.324Z,11.20
2019-04-14T15:29:42.753Z,11.40
2019-04-14T15:31:44.182Z,11.80
2019-04-14T15:33:45.560Z,12.10
2019-04-14T15:35:46.935Z,12.20
2019-04-14T15:37:48.364Z,12.40
2019-04-14T15:39:49.768Z,12.90
2019-04-14T15:41:51.537Z,12.80
2019-04-14T15:43:53.054Z,12.70
2019-04-14T15:45:54.410Z,12.70
2019-04-14T15:47:55.797Z,13.10
2019-04-14T15:49:57.201Z,13.40
2019-04-14T15:51:58.579Z,13.80
2019-04-14T15:53:59.981Z,13.90
2019-04-14T15:56:01.378Z,14.20
2019-04-14T15:58:04.642Z,14.00
2019-04-14T16:00:08.766Z,13.40
2019-04-14T16:02:12.104Z,12.80
2019-04-14T16:04:21.560Z,12.70
2019-04-14T16:06:28.998Z,12.40
2019-04-14T16:08:40.989Z,12.10
2019-04-14T16:10:56.259Z,11.90
2019-04-14T16:13:17.605Z,11.80
2019-04-14T16:15:29.802Z,11.60
2019-04-14T16:17:33.135Z,11.40
2019-04-14T16:19:42.494Z,11.30
2019-04-14T16:21:43.874Z,11.20
2019-04-14T16:23:50.869Z,11.10
2019-04-14T16:25:53.139Z,11.10
2019-04-14T16:27:59.068Z,11.00
2019-04-14T16:30:05.248Z,10.90
2019-04-14T16:32:08.762Z,10.90
2019-04-14T16:34:12.048Z,10.90
2019-04-14T16:36:13.423Z,10.70
2019-04-14T16:38:14.832Z,10.80
2019-04-14T16:40:16.207Z,10.80
2019-04-14T16:42:17.638Z,10.70
2019-04-14T16:44:19.119Z,10.80
2019-04-14T16:46:20.531Z,10.70
2019-04-14T16:48:21.952Z,10.60
2019-04-14T16:50:23.450Z,10.60
2019-04-14T16:52:26.794Z,10.50
2019-04-14T16:54:39.185Z,10.60
2019-04-14T16:56:58.802Z,10.50
2019-04-14T16:59:02.124Z,10.40
2019-04-14T17:01:08.111Z,10.40
2019-04-14T17:03:09.602Z,10.40
2019-04-14T17:05:10.984Z,10.30
2019-04-14T17:07:12.393Z,10.30
2019-04-14T17:09:13.820Z,10.20
2019-04-14T17:11:15.300Z,10.10
2019-04-14T17:13:16.703Z,10.10
2019-04-14T17:15:25.797Z,10.10
2019-04-14T17:17:34.856Z,10.10
2019-04-14T17:19:43.807Z,10.10
2019-04-14T17:22:02.172Z,10.10
2019-04-14T17:24:16.857Z,10.00
2019-04-14T17:26:19.632Z,10.00
2019-04-14T17:28:25.635Z,9.90
2019-04-14T17:30:43.739Z,9.90
2019-04-14T17:32:56.151Z,9.90
2019-04-14T17:35:15.947Z,9.90
2019-04-14T17:37:28.186Z,9.90
2019-04-14T17:39:47.911Z,9.70
2019-04-14T17:41:51.187Z,9.70
2019-04-14T17:43:54.482Z,9.70
2019-04-14T17:46:14.063Z,9.70
2019-04-14T17:48:29.139Z,9.70
2019-04-14T17:50:41.066Z,9.70
2019-04-14T17:52:46.106Z,9.70
2019-04-14T17:54:52.079Z,9.70
2019-04-14T17:56:58.277Z,9.70
2019-04-14T17:59:13.608Z,9.60
2019-04-14T18:01:17.148Z,9.50
2019-04-14T18:03:20.444Z,9.40
2019-04-14T18:05:23.824Z,9.40
2019-04-14T18:07:41.963Z,9.40
2019-04-14T18:09:45.253Z,9.40
2019-04-14T18:11:51.205Z,9.30
2019-04-14T18:14:10.992Z,9.30
2019-04-14T18:16:14.275Z,9.30
2019-04-14T18:18:26.348Z,9.30
2019-04-14T18:20:29.654Z,9.20
2019-04-14T18:22:31.067Z,9.20
2019-04-14T18:24:42.203Z,9.20
2019-04-14T18:26:35.848Z,9.20
2019-04-14T18:28:39.126Z,9.20
2019-04-14T18:30:42.398Z,9.10
2019-04-14T18:32:45.708Z,9.10
2019-04-14T18:34:55.131Z,9.10
2019-04-14T18:37:04.077Z,9.10
2019-04-14T18:39:12.264Z,9.00
2019-04-14T18:41:27.365Z,9.00
2019-04-14T18:43:33.322Z,9.00
2019-04-14T18:45:39.315Z,9.00
2019-04-14T18:47:45.525Z,9.00
2019-04-14T18:49:54.471Z,9.00
2019-04-14T18:52:06.611Z,8.90
2019-04-14T18:54:18.755Z,8.90
2019-04-14T18:56:38.277Z,9.00
2019-04-14T18:58:41.586Z,9.00
2019-04-14T19:00:53.926Z,8.90
2019-04-14T19:02:55.530Z,8.90
2019-04-14T19:04:56.906Z,8.90
2019-04-14T19:06:58.275Z,8.90
2019-04-14T19:08:59.686Z,8.90
2019-04-14T19:11:15.015Z,8.90
2019-04-14T19:13:24.065Z,8.90
2019-04-14T19:15:33.186Z,8.90
2019-04-14T19:17:39.094Z,8.80
2019-04-14T19:19:42.385Z,8.80
2019-04-14T19:21:43.816Z,8.80
2019-04-14T19:23:46.716Z,8.70
2019-04-14T19:25:48.303Z,8.70
2019-04-14T19:27:49.712Z,8.60
2019-04-14T19:29:51.084Z,8.60
2019-04-14T19:31:52.491Z,8.60
2019-04-14T19:33:53.870Z,8.60
2019-04-14T19:35:55.246Z,8.60
2019-04-14T19:37:56.674Z,8.50
2019-04-14T19:39:58.045Z,8.50
2019-04-14T19:41:59.465Z,8.50
2019-04-14T19:44:00.927Z,8.40
2019-04-14T19:46:02.339Z,8.40
2019-04-14T19:48:03.754Z,8.30
2019-04-14T19:50:05.538Z,8.30
2019-04-14T19:52:06.922Z,8.30
2019-04-14T19:54:08.353Z,8.30
2019-04-14T19:56:09.724Z,8.20
2019-04-14T19:58:11.109Z,8.30
2019-04-14T20:00:13.037Z,8.30
2019-04-14T20:02:14.453Z,8.20
2019-04-14T20:04:15.865Z,8.10
2019-04-14T20:06:17.238Z,8.10
2019-04-14T20:08:18.647Z,8.10
2019-04-14T20:10:20.062Z,8.00
2019-04-14T20:12:21.474Z,8.10
2019-04-14T20:14:22.895Z,8.10
2019-04-14T20:16:29.071Z,8.00
2019-04-14T20:18:44.380Z,8.00
2019-04-14T20:20:47.660Z,8.00
2019-04-14T20:23:02.861Z,8.00
2019-04-14T20:25:33.230Z,8.00
2019-04-14T20:27:27.755Z,8.00
2019-04-14T20:29:31.043Z,8.00
2019-04-14T20:31:37.241Z,8.00
2019-04-14T20:33:38.824Z,7.90
2019-04-14T20:35:40.196Z,7.90
2019-04-14T20:37:41.609Z,7.80
2019-04-14T20:39:43.020Z,7.80
2019-04-14T20:41:44.792Z,7.80
2019-04-14T20:43:46.216Z,7.70
2019-04-14T20:45:47.655Z,7.70
2019-04-14T20:47:49.114Z,7.60
2019-04-14T20:49:50.466Z,7.60
2019-04-14T20:51:51.862Z,7.60
2019-04-14T20:53:53.271Z,7.60
2019-04-14T20:55:54.720Z,7.50
2019-04-14T20:57:56.111Z,7.40
2019-04-14T20:59:57.535Z,7.30
2019-04-14T21:02:03.490Z,7.30
2019-04-14T21:04:18.486Z,7.20
2019-04-14T21:06:24.433Z,7.20
2019-04-14T21:08:30.539Z,7.20
2019-04-14T21:10:33.800Z,7.20
2019-04-14T21:12:46.161Z,7.20
2019-04-14T21:14:49.515Z,7.20
2019-04-14T21:17:04.769Z,7.20
2019-04-14T21:19:17.539Z,7.10
2019-04-14T21:21:26.641Z,7.10
2019-04-14T21:23:38.987Z,7.10
2019-04-14T21:25:42.348Z,7.00
2019-04-14T21:28:02.001Z,7.00
2019-04-14T21:30:08.943Z,7.00
2019-04-14T21:32:17.864Z,7.00
2019-04-14T21:34:21.198Z,6.90
2019-04-14T21:36:24.480Z,6.80
2019-04-14T21:38:42.553Z,6.80
2019-04-14T21:40:55.149Z,6.70
2019-04-14T21:42:56.517Z,6.70
2019-04-14T21:44:57.954Z,6.70
2019-04-14T21:46:59.365Z,6.70
2019-04-14T21:49:00.783Z,6.60
2019-04-14T21:51:02.122Z,6.60
2019-04-14T21:53:03.648Z,6.60
2019-04-14T21:55:05.657Z,6.60
2019-04-14T21:57:14.722Z,6.50
2019-04-14T21:59:17.998Z,6.50
2019-04-14T22:01:43.614Z,6.40
2019-04-14T22:03:46.900Z,6.40
2019-04-14T22:05:52.871Z,6.30
2019-04-14T22:08:08.149Z,6.40
2019-04-14T22:10:11.995Z,6.40
2019-04-14T22:12:13.426Z,6.30
2019-04-14T22:14:14.802Z,6.20
2019-04-14T22:16:16.181Z,6.20
2019-04-14T22:18:17.986Z,6.10
2019-04-14T22:20:19.365Z,6.10
2019-04-14T22:22:20.777Z,6.00
2019-04-14T22:24:22.358Z,6.00
2019-04-14T22:26:26.265Z,6.00
2019-04-14T22:28:27.008Z,5.90
2019-04-14T22:30:28.441Z,5.90
2019-04-14T22:32:29.793Z,5.80
2019-04-14T22:34:31.197Z,5.80
2019-04-14T22:36:32.575Z,5.80
2019-04-14T22:38:34.134Z,5.80
2019-04-14T22:40:35.591Z,5.80
2019-04-14T22:42:36.995Z,5.80
2019-04-14T22:44:38.428Z,5.80
2019-04-14T22:46:39.857Z,5.70
2019-04-14T22:48:41.288Z,5.70
2019-04-14T22:50:42.663Z,5.70
2019-04-14T22:52:44.021Z,5.70
2019-04-14T22:54:45.457Z,5.70
2019-04-14T22:56:46.871Z,5.60
2019-04-14T22:58:48.252Z,5.60
2019-04-14T23:00:51.643Z,5.60
2019-04-14T23:02:54.934Z,5.60
2019-04-14T23:05:14.699Z,5.50
2019-04-14T23:07:26.686Z,5.50
2019-04-14T23:09:32.865Z,5.50
2019-04-14T23:11:36.188Z,5.30
2019-04-14T23:13:39.464Z,5.30
2019-04-14T23:15:45.366Z,5.20
2019-04-14T23:17:48.685Z,5.30
2019-04-14T23:19:54.840Z,5.20
2019-04-14T23:22:01.001Z,5.20
2019-04-14T23:24:19.181Z,5.20
2019-04-14T23:26:20.551Z,5.10
2019-04-14T23:28:21.888Z,5.10
2019-04-14T23:30:23.397Z,5.10
2019-04-14T23:32:24.899Z,5.10
2019-04-14T23:34:26.391Z,5.00
2019-04-14T23:36:27.895Z,5.00
2019-04-14T23:38:29.325Z,5.00
2019-04-14T23:40:30.699Z,5.00
2019-04-14T23:42:32.100Z,4.90
2019-04-14T23:44:33.476Z,4.90
2019-04-14T23:46:34.845Z,4.80
2019-04-14T23:48:36.232Z,4.80
2019-04-14T23:50:37.678Z,4.80
2019-04-14T23:52:39.017Z,4.80
2019-04-14T23:54:40.388Z,4.70
2019-04-14T23:56:41.847Z,4.70
2019-04-14T23:58:43.257Z,4.60
